Time;durP1;ratioP1;P1;durP2;ratioP2;P2;SDS_P1;SDS_P2;PMS_P1;PMS_P2;Temp;Humidity;BMP_temperature;BMP_pressure;BME280_temperature;BME280_humidity;BME280_pressure;Samples;Min_cycle;Max_cycle;Signal;HPM_P1;HPM_P2
2024/04/15 00:01:22;;;;;;;6.60;3.40;;;;;;;8.43;52.29;100472.94;104878;1259;99927;-78
2024/04/15 00:04:07;;;;;;;7.30;3.40;;;;;;;8.37;52.66;100474.55;105144;1259;100133;-77
2024/04/15 00:09:10;;;;;;;6.70;3.40;;;;;;;8.30;52.78;100468.58;102674;1290;636329;-76
2024/04/15 00:11:56;;;;;;;9.80;3.40;;;;;;;8.26;53.02;100466.52;104651;1272;97228;-76
2024/04/15 00:14:41;;;;;;;7.40;3.20;;;;;;;8.25;53.20;100462.70;104769;1268;95914;-77
2024/04/15 00:17:27;;;;;;;6.40;2.70;;;;;;;8.25;53.26;100452.58;104724;1268;99562;-76
2024/04/15 00:20:12;;;;;;;8.30;3.20;;;;;;;8.25;53.19;100446.58;104714;1266;99796;-77
2024/04/15 00:22:58;;;;;;;7.30;2.70;;;;;;;8.23;53.30;100442.00;104647;1269;124790;-77
2024/04/15 00:25:45;;;;;;;10.00;4.10;;;;;;;8.21;53.36;100437.78;105168;1268;95945;-78
2024/04/15 00:28:30;;;;;;;9.40;3.20;;;;;;;8.20;53.51;100442.20;105001;1263;95909;-76
2024/04/15 00:31:15;;;;;;;6.60;2.90;;;;;;;8.17;53.61;100441.38;105107;1279;98648;-78
2024/04/15 00:34:01;;;;;;;9.10;2.90;;;;;;;8.15;53.72;100440.08;105043;1263;100158;-77
2024/04/15 00:36:46;;;;;;;6.30;3.00;;;;;;;8.12;53.83;100443.40;104807;1279;98981;-77
2024/04/15 00:39:32;;;;;;;8.00;3.10;;;;;;;8.08;54.01;100439.11;104775;1266;96623;-77
2024/04/15 00:42:18;;;;;;;8.20;3.20;;;;;;;8.05;54.11;100431.02;104686;1267;97190;-76
2024/04/15 00:45:27;;;;;;;10.00;3.00;;;;;;;8.06;54.10;100424.35;104844;1263;100012;-77
2024/04/15 00:48:15;;;;;;;8.00;3.10;;;;;;;8.06;54.42;100422.29;104732;1264;99956;-76
2024/04/15 00:51:01;;;;;;;6.60;2.80;;;;;;;8.05;54.90;100421.98;104702;1268;98681;-76
2024/04/15 00:53:49;;;;;;;5.80;3.00;;;;;;;8.04;54.81;100423.00;104781;1263;96729;-77
2024/04/15 00:56:35;;;;;;;14.60;3.60;;;;;;;8.02;54.92;100414.67;104718;1268;98746;-77
2024/04/15 00:59:21;;;;;;;9.30;3.10;;;;;;;8.00;55.34;100406.22;104774;1268;99996;-77
2024/04/15 01:02:07;;;;;;;6.90;3.00;;;;;;;7.99;55.51;100403.65;104738;1266;100529;-76
2024/04/15 01:04:54;;;;;;;9.30;3.70;;;;;;;7.98;55.66;100393.65;104701;1265;98784;-77
2024/04/15 01:07:39;;;;;;;9.20;3.30;;;;;;;7.96;55.70;100389.63;104858;1267;96608;-76
2024/04/15 01:10:25;;;;;;;8.60;3.40;;;;;;;7.88;56.02;100389.80;104786;1264;97221;-76
2024/04/15 01:13:11;;;;;;;10.60;3.10;;;;;;;7.79;56.39;100383.71;104899;1265;100135;-77
2024/04/15 01:15:57;;;;;;;6.60;3.20;;;;;;;7.74;56.64;100374.58;104746;1264;99163;-76
2024/04/15 01:18:43;;;;;;;12.50;3.80;;;;;;;7.69;56.77;100368.53;104761;1264;98975;-77
2024/04/15 01:21:28;;;;;;;7.50;3.60;;;;;;;7.67;56.99;100371.80;104696;1268;97398;-77
2024/04/15 01:24:14;;;;;;;7.30;3.30;;;;;;;7.62;57.10;100365.23;104997;1266;96435;-76
2024/04/15 01:26:59;;;;;;;6.50;3.50;;;;;;;7.60;57.30;100363.38;104949;1268;100833;-77
2024/04/15 01:29:45;;;;;;;8.80;3.20;;;;;;;7.54;57.55;100357.31;105223;1260;100355;-77
2024/04/15 01:32:30;;;;;;;5.90;3.30;;;;;;;7.47;58.08;100357.40;105220;1256;98877;-77
2024/04/15 01:35:15;;;;;;;10.20;3.60;;;;;;;7.40;58.05;100355.73;105251;1260;97248;-78
2024/04/15 01:38:02;;;;;;;7.00;3.40;;;;;;;7.34;58.20;100353.71;105225;1254;96692;-78
2024/04/15 01:40:47;;;;;;;10.40;3.00;;;;;;;7.32;58.43;100346.47;105222;1256;101278;-76
2024/04/15 01:43:33;;;;;;;8.20;3.50;;;;;;;7.31;58.91;100341.77;105304;1256;100491;-77
2024/04/15 01:46:18;;;;;;;7.90;3.70;;;;;;;7.28;59.23;100334.02;105130;1256;97860;-76
2024/04/15 01:49:04;;;;;;;9.10;3.10;;;;;;;7.25;59.14;100329.38;105165;1262;96649;-77
2024/04/15 01:51:49;;;;;;;8.60;3.50;;;;;;;7.21;59.40;100325.23;105388;1260;97228;-78
2024/04/15 01:54:35;;;;;;;9.90;4.40;;;;;;;7.19;59.48;100328.09;105468;1260;100772;-78
2024/04/15 01:57:20;;;;;;;9.30;4.40;;;;;;;7.17;59.83;100324.58;105432;1256;99855;-77
2024/04/15 02:00:06;;;;;;;7.40;4.00;;;;;;;7.14;60.02;100311.03;105560;1260;97720;-76
2024/04/15 02:02:59;;;;;;;8.00;3.70;;;;;;;7.10;60.10;100306.91;105416;1260;96663;-77
2024/04/15 02:05:44;;;;;;;14.40;4.00;;;;;;;7.03;60.16;100303.98;105585;1260;96505;-78
2024/04/15 02:08:30;;;;;;;8.10;3.70;;;;;;;6.97;60.26;100311.05;105515;1257;101305;-78
2024/04/15 02:11:15;;;;;;;10.60;4.70;;;;;;;6.93;60.75;100318.95;105502;1260;100116;-78
2024/04/15 02:14:01;;;;;;;13.40;5.30;;;;;;;6.91;60.97;100317.52;105553;1257;98835;-77
2024/04/15 02:16:46;;;;;;;15.90;5.40;;;;;;;6.90;61.23;100310.73;105460;1260;97598;-78
2024/04/15 02:19:32;;;;;;;10.20;4.40;;;;;;;6.88;61.44;100309.34;105433;1264;97172;-76
2024/04/15 02:22:17;;;;;;;9.00;4.10;;;;;;;6.84;61.86;100304.13;105663;1256;99997;-78
2024/04/15 02:25:04;;;;;;;10.50;4.50;;;;;;;6.79;62.22;100296.20;105600;1256;99165;-78
2024/04/15 02:27:50;;;;;;;8.80;4.40;;;;;;;6.73;62.28;100295.27;105506;1260;99464;-77
2024/04/15 02:30:36;;;;;;;8.80;3.60;;;;;;;6.69;62.28;100299.60;105491;1256;96530;-76
2024/04/15 02:33:21;;;;;;;9.20;4.30;;;;;;;6.66;62.67;100302.92;105620;1260;97513;-78
2024/04/15 02:36:07;;;;;;;9.30;3.90;;;;;;;6.66;63.21;100303.48;105561;1260;99968;-78
2024/04/15 02:38:52;;;;;;;12.10;4.50;;;;;;;6.67;63.79;100314.73;105570;1256;99121;-79
2024/04/15 02:41:37;;;;;;;12.10;4.90;;;;;;;6.67;64.28;100318.79;105559;1256;97716;-76
2024/04/15 02:44:23;;;;;;;11.10;4.10;;;;;;;6.68;64.63;100326.67;105292;1260;96649;-77
2024/04/15 02:47:08;;;;;;;10.00;3.90;;;;;;;6.69;64.84;100332.64;105292;1260;96620;-77
2024/04/15 02:49:54;;;;;;;10.30;3.70;;;;;;;6.70;64.97;100334.83;105290;1256;101092;-77
2024/04/15 02:52:41;;;;;;;8.00;3.80;;;;;;;6.71;65.03;100336.02;105430;1256;99094;-77
2024/04/15 02:55:27;;;;;;;8.80;4.00;;;;;;;6.70;65.11;100334.10;105419;1256;97697;-77
2024/04/15 02:58:12;;;;;;;8.00;3.90;;;;;;;6.69;65.45;100325.73;105727;1260;96640;-77
2024/04/15 03:00:58;;;;;;;10.60;4.70;;;;;;;6.68;65.68;100318.93;105707;1256;97130;-78
2024/04/15 03:03:46;;;;;;;8.40;3.70;;;;;;;6.69;65.83;100316.70;105653;1260;100129;-77
2024/04/15 03:06:31;;;;;;;6.80;3.80;;;;;;;6.70;65.95;100315.87;105690;1257;99428;-78
2024/04/15 03:09:20;;;;;;;8.60;3.90;;;;;;;6.70;66.43;100311.44;105471;1260;97751;-76
2024/04/15 03:12:05;;;;;;;7.80;4.00;;;;;;;6.65;66.57;100305.40;105750;1262;96638;-79
2024/04/15 03:14:51;;;;;;;8.80;4.00;;;;;;;6.62;66.84;100297.98;105569;1262;97071;-77
2024/04/15 03:17:36;;;;;;;6.70;3.50;;;;;;;6.61;67.00;100299.52;105544;1275;100125;-79
2024/04/15 03:20:25;;;;;;;9.80;4.40;;;;;;;6.61;67.23;100299.51;105993;1256;99184;-79
2024/04/15 03:23:11;;;;;;;9.80;4.30;;;;;;;6.62;67.17;100292.43;106788;1255;97719;-78
2024/04/15 03:25:56;;;;;;;13.10;4.30;;;;;;;6.65;67.35;100293.48;105801;1260;96876;-78
2024/04/15 03:28:42;;;;;;;9.70;4.30;;;;;;;6.67;67.49;100296.30;105654;1262;96709;-78
2024/04/15 03:31:27;;;;;;;11.70;5.30;;;;;;;6.69;67.96;100297.50;105255;1263;101331;-77
2024/04/15 03:34:12;;;;;;;9.30;4.30;;;;;;;6.70;67.96;100301.16;105347;1260;99828;-77
2024/04/15 03:36:58;;;;;;;12.50;5.30;;;;;;;6.71;68.26;100306.71;105413;1260;97677;-79
2024/04/15 03:39:48;;;;;;;9.70;4.90;;;;;;;6.72;68.59;100304.19;105168;1262;96872;-77
2024/04/15 03:42:34;;;;;;;12.30;5.00;;;;;;;6.75;69.04;100302.52;105321;1257;96650;-77
2024/04/15 03:45:19;;;;;;;11.40;5.10;;;;;;;6.76;69.34;100291.00;105581;1256;99995;-78
2024/04/15 03:48:05;;;;;;;14.90;4.50;;;;;;;6.78;69.37;100272.83;105477;1261;99733;-79
2024/04/15 03:50:51;;;;;;;10.70;4.60;;;;;;;6.81;69.58;100257.09;105365;1261;98651;-79
2024/04/15 03:53:36;;;;;;;9.20;4.40;;;;;;;6.85;69.66;100247.76;105758;1260;96630;-79
2024/04/15 03:56:21;;;;;;;13.80;5.80;;;;;;;6.88;70.24;100244.75;105733;1260;97036;-78
2024/04/15 03:59:07;;;;;;;13.30;6.00;;;;;;;6.90;70.19;100247.38;105740;1261;101298;-78
2024/04/15 04:01:52;;;;;;;12.70;5.70;;;;;;;6.89;70.13;100246.25;105795;1260;99122;-79
2024/04/15 04:04:47;;;;;;;16.00;6.60;;;;;;;6.86;70.19;100249.25;105746;1261;97778;-77
2024/04/15 04:07:33;;;;;;;13.20;6.60;;;;;;;6.84;70.60;100260.34;106000;1257;96617;-78
2024/04/15 04:10:18;;;;;;;16.40;5.00;;;;;;;6.83;70.74;100270.73;106045;1255;97286;-78
2024/04/15 04:13:04;;;;;;;17.20;5.40;;;;;;;6.84;71.08;100273.65;106074;1255;100001;-77
2024/04/15 04:15:49;;;;;;;12.20;5.30;;;;;;;6.87;71.57;100275.23;106103;1254;99358;-79
2024/04/15 04:18:35;;;;;;;13.20;5.50;;;;;;;6.90;72.07;100269.37;105822;1253;98766;-76
2024/04/15 04:21:20;;;;;;;14.80;5.90;;;;;;;6.93;72.35;100270.12;105557;1255;96551;-77
2024/04/15 04:24:06;;;;;;;10.70;5.20;;;;;;;6.95;72.52;100267.77;105618;1254;96400;-77
2024/04/15 04:26:51;;;;;;;12.00;4.90;;;;;;;6.97;72.55;100267.87;105690;1257;100773;-77
2024/04/15 04:29:36;;;;;;;10.80;6.10;;;;;;;7.00;72.79;100259.23;105600;1256;100564;-77
2024/04/15 04:32:22;;;;;;;13.90;5.50;;;;;;;7.03;72.99;100252.71;105547;1256;97766;-76
2024/04/15 04:35:07;;;;;;;11.70;5.90;;;;;;;7.04;73.27;100250.58;105600;1256;98422;-76
2024/04/15 04:37:53;;;;;;;16.70;6.70;;;;;;;7.07;73.41;100247.48;105531;1254;97081;-76
2024/04/15 04:40:38;;;;;;;11.60;6.10;;;;;;;7.09;73.15;100234.59;105605;1256;100716;-76
2024/04/15 04:43:24;;;;;;;12.60;6.30;;;;;;;7.12;73.10;100229.47;105588;1253;99127;-77
2024/04/15 04:46:12;;;;;;;8.70;5.30;;;;;;;7.14;73.22;100238.78;105614;1251;97957;-76
2024/04/15 04:48:58;;;;;;;10.40;5.50;;;;;;;7.16;73.12;100233.75;105574;1256;98592;-77
2024/04/15 04:51:43;;;;;;;14.10;5.70;;;;;;;7.19;73.24;100231.07;105747;1256;98848;-76
2024/04/15 04:54:29;;;;;;;13.90;6.50;;;;;;;7.24;73.65;100231.61;105611;1257;102589;-76
2024/04/15 04:57:15;;;;;;;11.70;6.70;;;;;;;7.25;73.87;100228.44;105633;1255;100342;-76
2024/04/15 05:00:00;;;;;;;10.10;6.20;;;;;;;7.28;74.46;100237.02;105625;1256;98536;-77
2024/04/15 05:02:46;;;;;;;13.40;6.00;;;;;;;7.27;75.04;100245.65;105762;1257;97980;-78
2024/04/15 05:05:35;;;;;;;12.20;5.90;;;;;;;7.25;75.02;100244.09;105529;1256;99643;-77
2024/04/15 05:08:20;;;;;;;8.50;5.10;;;;;;;7.24;75.05;100247.39;105624;1258;101335;-77
2024/04/15 05:11:06;;;;;;;15.20;6.80;;;;;;;7.24;75.18;100241.00;105594;1255;99106;-77
2024/04/15 05:13:52;;;;;;;12.60;6.00;;;;;;;7.25;75.40;100234.91;105685;1258;97965;-78
2024/04/15 05:16:38;;;;;;;12.50;6.00;;;;;;;7.26;75.58;100230.30;105528;1251;99153;-77
2024/04/15 05:19:23;;;;;;;16.70;6.50;;;;;;;7.29;75.81;100229.22;105572;1257;98473;-77
2024/04/15 05:22:08;;;;;;;13.00;6.30;;;;;;;7.33;75.85;100230.36;106055;1256;101336;-79
2024/04/15 05:24:54;;;;;;;17.60;6.10;;;;;;;7.36;74.91;100230.89;106003;1257;99097;-78
2024/04/15 05:27:40;;;;;;;16.90;6.50;;;;;;;7.41;74.62;100228.52;105805;1256;98520;-77
2024/04/15 05:30:26;;;;;;;12.90;6.10;;;;;;;7.47;74.53;100226.75;106215;1256;99231;-79
2024/04/15 05:33:11;;;;;;;15.60;6.30;;;;;;;7.53;74.28;100228.58;105903;1251;98716;-76
2024/04/15 05:35:57;;;;;;;14.40;6.40;;;;;;;7.58;74.29;100232.78;105829;1256;101287;-77
2024/04/15 05:38:42;;;;;;;11.50;5.50;;;;;;;7.63;74.51;100235.74;105807;1257;99626;-78
2024/04/15 05:41:28;;;;;;;18.60;6.10;;;;;;;7.68;74.75;100240.20;105612;1256;98959;-78
2024/04/15 05:44:13;;;;;;;15.10;5.90;;;;;;;7.70;74.54;100235.13;105557;1256;98017;-78
2024/04/15 05:46:59;;;;;;;11.90;6.10;;;;;;;7.72;74.48;100235.42;105652;1251;97963;-78
2024/04/15 05:49:44;;;;;;;12.70;4.80;;;;;;;7.74;74.32;100239.94;105820;1251;103159;-78
2024/04/15 05:52:30;;;;;;;13.70;6.00;;;;;;;7.78;74.58;100241.11;105948;1257;100384;-78
2024/04/15 05:55:15;;;;;;;10.30;5.30;;;;;;;7.81;74.00;100241.52;106170;1258;98074;-78
2024/04/15 05:58:01;;;;;;;14.00;5.30;;;;;;;7.84;73.83;100241.74;106190;1255;97959;-79
2024/04/15 06:00:46;;;;;;;12.50;5.60;;;;;;;7.86;73.43;100242.55;106119;1256;98650;-79
2024/04/15 06:03:31;;;;;;;13.60;5.20;;;;;;;7.88;73.26;100232.52;106156;1256;101823;-78
2024/04/15 06:06:17;;;;;;;10.60;5.70;;;;;;;7.89;73.34;100225.44;105944;1257;99128;-78
2024/04/15 06:09:02;;;;;;;16.40;7.90;;;;;;;7.90;73.44;100227.63;105777;1251;97991;-77
2024/04/15 06:11:48;;;;;;;12.50;7.30;;;;;;;7.93;73.76;100218.96;105813;1257;99142;-78
2024/04/15 06:14:34;;;;;;;12.20;5.50;;;;;;;7.96;73.45;100213.64;105813;1256;99104;-76
2024/04/15 06:17:19;;;;;;;15.40;5.80;;;;;;;7.97;73.60;100212.20;105790;1255;102889;-78
2024/04/15 06:20:06;;;;;;;13.80;6.00;;;;;;;8.02;73.91;100213.66;105834;1256;99155;-78
2024/04/15 06:22:51;;;;;;;13.50;5.60;;;;;;;8.06;74.11;100217.89;105945;1251;99234;-78
2024/04/15 06:25:37;;;;;;;17.10;5.50;;;;;;;8.10;74.03;100223.91;105855;1252;97997;-77
2024/04/15 06:28:22;;;;;;;15.30;5.50;;;;;;;8.12;74.11;100227.27;105813;1257;98457;-77
2024/04/15 06:31:08;;;;;;;13.30;5.10;;;;;;;8.16;74.11;100227.39;105621;1251;101367;-76
2024/04/15 06:33:54;;;;;;;18.30;5.70;;;;;;;8.19;74.11;100223.35;105788;1266;100368;-77
2024/04/15 06:36:40;;;;;;;16.90;5.90;;;;;;;8.20;74.21;100218.73;105544;1262;98502;-77
2024/04/15 06:39:26;;;;;;;12.30;4.70;;;;;;;8.22;74.41;100216.54;105620;1257;99212;-77
2024/04/15 06:42:12;;;;;;;15.70;5.70;;;;;;;8.25;74.34;100212.50;105611;1254;97888;-77
2024/04/15 06:44:57;;;;;;;18.10;5.00;;;;;;;8.26;74.65;100213.38;105570;1256;101349;-77
2024/04/15 06:47:43;;;;;;;13.70;4.70;;;;;;;8.27;74.41;100204.23;105811;1266;99099;-77
2024/04/15 06:50:28;;;;;;;12.70;4.60;;;;;;;8.27;74.18;100192.16;105930;1257;98600;-77
2024/04/15 06:53:14;;;;;;;9.10;4.50;;;;;;;8.29;74.58;100197.64;105583;1266;97913;-77
2024/04/15 06:55:59;;;;;;;8.10;4.30;;;;;;;8.31;74.90;100202.48;105598;1257;97833;-77
2024/04/15 06:58:44;;;;;;;10.70;4.50;;;;;;;8.34;75.19;100203.05;105701;1256;101327;-77
2024/04/15 07:01:30;;;;;;;11.10;3.90;;;;;;;8.37;75.46;100198.63;105794;1251;100359;-78
2024/04/15 07:04:15;;;;;;;12.40;4.60;;;;;;;8.38;75.85;100196.30;105823;1257;97952;-78
2024/04/15 07:07:01;;;;;;;7.90;3.10;;;;;;;8.42;76.12;100202.38;105929;1258;97950;-77
2024/04/15 07:09:47;;;;;;;10.80;3.60;;;;;;;8.45;76.46;100193.11;105961;1257;98387;-78
2024/04/15 07:12:32;;;;;;;8.00;3.60;;;;;;;8.49;76.83;100187.56;105816;1256;101361;-78
2024/04/15 07:15:18;;;;;;;7.70;3.50;;;;;;;8.50;77.12;100181.63;105619;1267;100135;-77
2024/04/15 07:18:03;;;;;;;10.70;2.60;;;;;;;8.54;77.45;100178.04;105614;1256;97954;-78
2024/04/15 07:20:49;;;;;;;5.10;2.60;;;;;;;8.56;77.87;100183.84;105725;1254;98060;-77
2024/04/15 07:23:34;;;;;;;8.00;2.90;;;;;;;8.60;78.28;100180.66;105549;1254;97770;-77
2024/04/15 07:26:20;;;;;;;5.40;2.50;;;;;;;8.62;78.91;100177.90;105626;1254;101315;-78
2024/04/15 07:29:07;;;;;;;8.10;2.80;;;;;;;8.64;79.20;100173.11;105587;1251;99163;-77
2024/04/15 07:31:54;;;;;;;9.20;3.00;;;;;;;8.66;79.72;100162.64;105570;1256;99006;-77
2024/04/15 07:34:43;;;;;;;8.70;3.50;;;;;;;8.69;79.73;100155.73;105789;1254;97950;-77
2024/04/15 07:37:28;;;;;;;18.30;9.10;;;;;;;8.72;79.95;100154.41;105875;1257;97871;-77
2024/04/15 07:40:14;;;;;;;15.20;6.50;;;;;;;8.78;80.29;100164.36;105902;1258;102001;-76
2024/04/15 07:42:59;;;;;;;8.80;3.80;;;;;;;8.83;80.37;100168.40;105561;1251;99306;-77
2024/04/15 07:45:45;;;;;;;8.40;2.90;;;;;;;8.86;80.17;100160.26;105571;1251;98980;-76
2024/04/15 07:48:30;;;;;;;7.40;3.50;;;;;;;8.90;80.45;100151.23;105557;1256;97981;-78
2024/04/15 07:51:16;;;;;;;11.70;6.50;;;;;;;8.95;80.00;100147.52;105580;1251;99300;-79
2024/04/15 07:54:01;;;;;;;13.20;4.90;;;;;;;9.01;80.14;100149.69;105586;1257;102533;-77
2024/04/15 07:56:47;;;;;;;12.60;5.10;;;;;;;9.09;80.52;100152.20;105657;1256;100354;-76
2024/04/15 07:59:32;;;;;;;11.40;2.90;;;;;;;9.19;80.85;100148.09;105735;1254;98134;-77
2024/04/15 08:02:18;;;;;;;6.60;2.90;;;;;;;9.29;80.70;100143.05;106030;1251;98405;-80
2024/04/15 08:05:03;;;;;;;7.90;2.60;;;;;;;9.39;80.23;100137.73;105678;1258;98480;-82
2024/04/15 08:07:51;;;;;;;9.90;3.50;;;;;;;9.50;79.79;100137.06;106250;1254;101363;-82
2024/04/15 08:10:37;;;;;;;11.90;3.20;;;;;;;9.60;79.84;100138.02;106555;1251;101202;-77
2024/04/15 08:13:22;;;;;;;6.70;2.80;;;;;;;9.70;79.19;100139.97;105728;1254;97968;-82
2024/04/15 08:16:08;;;;;;;7.30;3.80;;;;;;;9.75;78.75;100141.40;106270;1260;98042;-80
2024/04/15 08:18:54;;;;;;;9.00;3.20;;;;;;;9.78;78.24;100140.76;106384;1254;98434;-84
2024/04/15 08:21:41;;;;;;;8.40;3.20;;;;;;;9.80;77.50;100142.77;106392;1255;101349;-79
2024/04/15 08:24:27;;;;;;;8.80;2.80;;;;;;;9.78;76.87;100142.39;105864;1251;100170;-84
2024/04/15 08:27:12;;;;;;;8.10;3.30;;;;;;;9.79;77.12;100139.42;106094;1257;98877;-82
2024/04/15 08:29:57;;;;;;;11.00;4.20;;;;;;;9.86;77.40;100139.61;106287;1257;98015;-84
2024/04/15 08:32:50;;;;;;;8.80;2.80;;;;;;;9.94;77.39;100143.42;106455;1253;99651;-84
2024/04/15 08:35:38;;;;;;;7.20;2.40;;;;;;;9.99;76.92;100144.01;106171;1253;102452;-83
2024/04/15 08:38:24;;;;;;;10.00;2.80;;;;;;;10.05;76.99;100140.19;106314;1254;100380;-86
2024/04/15 08:41:25;;;;;;;8.70;3.50;;;;;;;10.09;76.60;100134.58;106220;1254;100037;-85
2024/04/15 08:44:17;;;;;;;7.00;3.00;;;;;;;10.12;76.06;100124.61;106230;1257;97949;-83
2024/04/15 08:47:12;;;;;;;8.20;2.40;;;;;;;10.16;75.46;100129.08;106428;1253;97980;-83
2024/04/15 08:49:58;;;;;;;5.80;2.10;;;;;;;10.23;76.09;100127.41;106874;1252;102584;-81
2024/04/15 08:52:44;;;;;;;6.20;2.20;;;;;;;10.33;76.52;100128.55;106384;1255;100533;-81
2024/04/15 08:55:31;;;;;;;11.00;3.50;;;;;;;10.41;75.84;100128.56;106794;1251;99269;-81
2024/04/15 08:58:17;;;;;;;5.80;2.20;;;;;;;10.48;76.18;100132.21;106436;1254;98208;-79
2024/04/15 09:01:04;;;;;;;6.10;2.40;;;;;;;10.55;76.11;100139.92;106616;1256;98066;-80
2024/04/15 09:03:50;;;;;;;7.40;2.40;;;;;;;10.60;75.50;100139.74;106598;1257;111839;-82
2024/04/15 09:06:36;;;;;;;5.10;2.30;;;;;;;10.57;75.06;100131.48;106793;1257;100362;-82
2024/04/15 09:09:21;;;;;;;7.00;3.30;;;;;;;10.57;75.24;100123.30;106542;1254;98077;-81
2024/04/15 09:12:07;;;;;;;8.40;2.30;;;;;;;10.56;74.56;100122.89;106472;1252;97875;-84
2024/04/15 09:14:53;;;;;;;7.20;2.50;;;;;;;10.57;75.29;100123.13;106191;1254;98118;-77
2024/04/15 09:17:39;;;;;;;9.70;2.60;;;;;;;10.61;75.49;100120.71;105665;1257;103754;-78
2024/04/15 09:20:28;;;;;;;6.50;2.30;;;;;;;10.66;75.55;100120.86;105752;1251;99884;-78
2024/04/15 09:23:15;;;;;;;6.20;2.40;;;;;;;10.77;75.71;100117.13;105806;1255;98963;-77
2024/04/15 09:26:00;;;;;;;9.20;2.20;;;;;;;10.88;75.65;100119.10;105675;1258;98046;-77
2024/04/15 09:28:45;;;;;;;6.10;2.00;;;;;;;10.96;75.28;100116.59;105781;1254;98644;-78
2024/04/15 09:31:31;;;;;;;9.50;2.60;;;;;;;11.05;75.00;100115.38;105603;1254;101323;-79
2024/04/15 09:34:17;;;;;;;4.80;2.30;;;;;;;11.15;74.91;100106.91;105658;1256;99146;-78
2024/04/15 09:37:17;;;;;;;7.90;2.80;;;;;;;11.29;74.54;100108.77;105698;1257;106379;-79
2024/04/15 09:40:04;;;;;;;7.20;2.00;;;;;;;11.34;73.60;100100.18;105804;1253;98608;-77
2024/04/15 09:42:51;;;;;;;9.30;2.10;;;;;;;11.38;73.38;100093.88;105585;1256;97920;-78
2024/04/15 09:45:37;;;;;;;8.80;2.20;;;;;;;11.46;73.47;100090.88;106697;1252;101562;-81
2024/04/15 09:48:25;;;;;;;3.80;1.90;;;;;;;11.57;73.22;100090.11;106721;1253;99157;-81
2024/04/15 09:51:23;;;;;;;6.00;1.70;;;;;;;11.69;73.21;100085.15;106444;1257;97882;-83
2024/04/15 09:54:10;;;;;;;6.80;1.70;;;;;;;11.83;73.18;100080.60;106517;1253;98068;-79
2024/04/15 09:57:04;;;;;;;8.40;2.00;;;;;;;11.93;72.64;100074.90;105909;1252;98381;-80
2024/04/15 09:59:56;;;;;;;6.30;1.80;;;;;;;11.97;71.76;100076.34;106564;1254;101345;-79
2024/04/15 10:02:52;;;;;;;5.00;1.60;;;;;;;12.00;71.45;100072.84;107346;1253;99282;-84
2024/04/15 10:05:40;;;;;;;5.40;1.90;;;;;;;12.04;70.52;100074.02;106713;1255;99240;-80
2024/04/15 10:08:26;;;;;;;6.10;1.70;;;;;;;12.09;70.12;100065.09;106817;1253;97923;-81
2024/04/15 10:11:12;;;;;;;6.10;1.80;;;;;;;12.16;69.95;100064.34;106640;1253;98396;-80
2024/04/15 10:13:58;;;;;;;4.80;1.80;;;;;;;12.26;70.57;100064.69;106535;1252;103517;-80
2024/04/15 10:16:47;;;;;;;5.70;1.80;;;;;;;12.38;70.43;100065.44;106739;1256;100789;-80
2024/04/15 10:19:34;;;;;;;4.80;2.70;;;;;;;12.47;69.94;100062.35;106477;1255;98905;-81
2024/04/15 10:22:23;;;;;;;5.30;1.70;;;;;;;12.55;69.42;100050.83;106584;1252;97828;-81
2024/04/15 10:25:10;;;;;;;7.00;1.70;;;;;;;12.60;69.29;100045.70;106355;1253;97868;-84
2024/04/15 10:27:57;;;;;;;7.40;2.10;;;;;;;12.67;69.05;100039.90;106488;1256;103748;-81
2024/04/15 10:30:46;;;;;;;6.90;1.90;;;;;;;12.76;68.66;100037.88;106555;1252;100336;-81
2024/04/15 10:33:32;;;;;;;8.30;1.70;;;;;;;12.83;67.58;100036.98;106263;1257;98779;-81
2024/04/15 10:36:29;;;;;;;5.40;2.50;;;;;;;12.91;66.84;100030.69;106325;1258;97942;-83
2024/04/15 10:39:17;;;;;;;5.00;1.90;;;;;;;12.89;65.15;100032.77;106737;1257;97399;-80
2024/04/15 10:42:02;;;;;;;5.90;1.60;;;;;;;12.94;65.33;100028.61;105778;1260;101477;-87
2024/04/15 10:44:51;;;;;;;8.90;1.60;;;;;;;13.08;66.10;100025.56;106551;1256;100358;-88
2024/04/15 10:47:39;;;;;;;4.90;1.70;;;;;;;13.19;65.60;100023.64;106409;1257;99015;-84
2024/04/15 10:50:28;;;;;;;;;;;;;;;13.19;64.15;100024.26;106150;1255;97975;-84
2024/04/15 10:53:16;;;;;;;5.50;1.40;;;;;;;13.10;63.48;100017.23;106297;1255;98501;-84
2024/04/15 10:56:02;;;;;;;7.30;2.00;;;;;;;13.07;63.66;100011.35;106033;1256;102587;-81
2024/04/15 10:58:48;;;;;;;5.90;3.30;;;;;;;13.14;64.67;100008.12;106130;1265;100424;-82
2024/04/15 11:01:35;;;;;;;8.50;2.40;;;;;;;13.25;64.97;100009.85;106255;1256;99889;-82
2024/04/15 11:04:21;;;;;;;6.70;1.50;;;;;;;13.35;64.40;100006.13;107330;1259;97996;-81
2024/04/15 11:07:08;;;;;;;6.10;1.90;;;;;;;13.40;63.30;100005.19;105938;1263;98014;-82
2024/04/15 11:09:53;;;;;;;4.70;1.60;;;;;;;13.34;62.15;99998.89;106412;1256;101341;-84
2024/04/15 11:12:39;;;;;;;6.10;1.80;;;;;;;13.27;61.74;99996.77;106316;1256;99119;-82
2024/04/15 11:15:26;;;;;;;13.80;2.00;;;;;;;13.23;62.06;99998.58;106306;1256;98083;-83
2024/04/15 11:18:13;;;;;;;3.20;1.40;;;;;;;13.14;61.24;99994.00;106227;1260;98044;-84
2024/04/15 11:21:03;;;;;;;5.40;1.30;;;;;;;13.11;61.22;99994.31;106254;1259;97955;-81
2024/04/15 11:23:53;;;;;;;4.50;1.30;;;;;;;13.14;61.49;99991.52;106459;1256;102155;-81
2024/04/15 11:26:41;;;;;;;8.20;1.80;;;;;;;13.22;61.21;99988.77;106345;1259;100200;-84
2024/04/15 11:29:27;;;;;;;3.00;1.30;;;;;;;13.29;60.17;99985.28;106099;1256;97960;-85
2024/04/15 11:32:15;;;;;;;4.40;1.50;;;;;;;13.29;60.00;99986.04;106001;1256;97926;-86
2024/04/15 11:35:03;;;;;;;4.00;1.20;;;;;;;13.21;58.87;99983.24;106197;1256;97951;-84
2024/04/15 11:37:58;;;;;;;3.40;1.30;;;;;;;13.19;59.12;99974.40;106128;1258;101359;-83
2024/04/15 11:40:45;;;;;;;5.50;1.60;;;;;;;13.21;58.60;99963.75;106142;1258;101219;-84
2024/04/15 11:43:31;;;;;;;3.90;1.50;;;;;;;13.17;58.69;99959.07;106312;1256;99239;-84
2024/04/15 11:46:17;;;;;;;8.40;1.50;;;;;;;13.16;58.82;99955.61;106132;1256;98045;-81
2024/04/15 11:49:03;;;;;;;2.70;1.50;;;;;;;13.15;59.62;99947.84;106484;1255;97871;-82
2024/04/15 11:51:49;;;;;;;4.80;1.50;;;;;;;13.20;60.07;99945.45;106060;1256;103849;-81
2024/04/15 11:54:37;;;;;;;4.80;2.10;;;;;;;13.21;59.07;99941.29;106005;1256;100427;-85
2024/04/15 11:57:23;;;;;;;6.00;1.60;;;;;;;13.30;59.60;99932.93;106247;1256;98895;-85
2024/04/15 12:00:10;;;;;;;6.30;1.50;;;;;;;13.46;59.83;99930.59;106278;1256;98093;-86
2024/04/15 12:02:58;;;;;;;5.50;1.20;;;;;;;13.62;60.26;99921.87;106379;1255;97932;-83
2024/04/15 12:05:44;;;;;;;2.70;1.20;;;;;;;13.70;59.17;99918.30;106313;1256;102585;-83
2024/04/15 12:08:34;;;;;;;6.40;1.50;;;;;;;13.74;58.56;99910.80;106505;1254;101294;-85
2024/04/15 12:11:21;;;;;;;5.00;1.80;;;;;;;13.80;58.61;99907.92;106290;1255;99811;-81
2024/04/15 12:14:07;;;;;;;6.10;2.10;;;;;;;13.90;58.84;99907.20;106840;1257;97983;-85
2024/04/15 12:16:52;;;;;;;8.30;2.20;;;;;;;13.92;58.42;99908.70;108439;1254;95820;-85
2024/04/15 12:19:38;;;;;;;8.20;2.00;;;;;;;13.88;58.05;99904.02;106740;1256;102690;-82
2024/04/15 12:22:23;;;;;;;4.90;2.10;;;;;;;13.89;57.84;99895.89;106145;1255;145119;-86
2024/04/15 12:25:12;;;;;;;7.20;1.60;;;;;;;14.03;58.68;99887.77;106430;1259;98995;-84
2024/04/15 12:27:57;;;;;;;5.20;1.70;;;;;;;14.20;58.84;99883.41;106163;1255;97949;-83
2024/04/15 12:30:43;;;;;;;6.40;1.80;;;;;;;14.31;58.64;99867.53;106302;1259;97925;-82
2024/04/15 12:33:29;;;;;;;4.60;2.00;;;;;;;14.38;58.43;99860.52;106410;1254;102956;-84
2024/04/15 12:36:15;;;;;;;2.20;1.20;;;;;;;14.47;58.52;99854.86;106330;1256;101194;-88
2024/04/15 12:39:01;;;;;;;2.70;1.50;;;;;;;14.56;58.28;99847.40;106157;1256;99309;-87
2024/04/15 12:41:47;;;;;;;3.70;1.30;;;;;;;14.63;57.79;99844.06;106224;1262;97919;-88
2024/04/15 12:44:33;;;;;;;11.30;2.00;;;;;;;14.62;56.41;99848.69;106212;1256;98416;-89
2024/04/15 12:47:18;;;;;;;6.40;1.20;;;;;;;14.58;55.67;99846.38;106223;1255;102686;-84
2024/04/15 12:50:05;;;;;;;6.10;1.40;;;;;;;14.57;55.14;99846.84;106008;1258;99278;-81